Time;durP1;ratioP1;P1;durP2;ratioP2;P2;SDS_P1;SDS_P2;PMS_P1;PMS_P2;Temp;Humidity;BMP_temperature;BMP_pressure;BME280_temperature;BME280_humidity;BME280_pressure;Samples;Min_cycle;Max_cycle;Signal;HPM_P1;HPM_P2
2023/06/23 00:01:20;;;;;;;21.08;18.98;;;18.60;84.60;;;;;;5092422;28;20082;-79
2023/06/23 00:03:46;;;;;;;23.63;20.38;;;18.60;84.60;;;;;;5075838;28;20055;-79
2023/06/23 00:06:13;;;;;;;19.35;17.35;;;18.60;84.90;;;;;;5072402;28;20556;-79
2023/06/23 00:08:39;;;;;;;22.58;19.60;;;18.60;84.80;;;;;;5072632;28;20484;-80
2023/06/23 00:11:09;;;;;;;21.67;19.48;;;18.50;84.90;;;;;;5039768;28;20040;-80
2023/06/23 00:13:36;;;;;;;21.38;19.27;;;18.50;84.80;;;;;;5077233;28;20389;-80
2023/06/23 00:16:04;;;;;;;23.23;20.80;;;18.50;84.70;;;;;;5044688;28;20499;-80
2023/06/23 00:18:39;;;;;;;24.10;21.52;;;18.50;84.80;;;;;;5080848;28;20044;-80
2023/06/23 00:21:07;;;;;;;24.02;21.52;;;18.50;84.80;;;;;;5080198;28;20047;-80
2023/06/23 00:23:34;;;;;;;23.85;21.45;;;18.50;85.10;;;;;;5097126;28;20129;-79
2023/06/23 00:26:00;;;;;;;22.92;20.67;;;18.50;84.90;;;;;;5079812;28;20073;-80
2023/06/23 00:28:26;;;;;;;25.52;22.98;;;18.40;85.00;;;;;;5080118;28;20431;-80
2023/06/23 00:30:53;;;;;;;26.88;24.15;;;18.50;85.20;;;;;;5077791;28;20044;-80
2023/06/23 00:33:19;;;;;;;22.48;20.00;;;18.40;85.30;;;;;;5095538;28;20071;-80
2023/06/23 00:35:45;;;;;;;23.13;20.73;;;18.40;85.40;;;;;;5062362;28;20039;-80
2023/06/23 00:38:11;;;;;;;24.10;21.58;;;18.30;85.50;;;;;;5096027;28;20123;-79
2023/06/23 00:40:36;;;;;;;27.55;24.52;;;18.40;85.60;;;;;;5062376;28;20045;-79
2023/06/23 00:43:02;;;;;;;25.80;23.08;;;18.40;85.60;;;;;;5062640;28;20039;-79
2023/06/23 00:45:28;;;;;;;30.83;27.50;;;18.30;85.60;;;;;;5078200;28;20668;-80
2023/06/23 00:47:55;;;;;;;29.25;26.20;;;18.30;85.50;;;;;;5079248;28;20044;-80
2023/06/23 00:50:22;;;;;;;28.33;25.30;;;18.30;85.70;;;;;;5079249;28;20064;-80
2023/06/23 00:52:50;;;;;;;27.25;24.38;;;18.20;85.80;;;;;;5095572;28;20044;-80
2023/06/23 00:55:23;;;;;;;28.10;25.08;;;18.30;85.80;;;;;;5078595;28;20169;-80
2023/06/23 00:57:50;;;;;;;29.15;26.00;;;18.20;85.80;;;;;;5062754;28;20550;-80
2023/06/23 01:00:20;;;;;;;27.98;25.13;;;18.20;85.70;;;;;;5093316;28;20047;-80
2023/06/23 01:02:50;;;;;;;26.63;23.90;;;18.20;86.00;;;;;;5078788;28;20100;-81
2023/06/23 01:05:18;;;;;;;31.55;28.25;;;18.10;85.70;;;;;;5062715;28;20100;-81
2023/06/23 01:08:08;;;;;;;23.55;21.15;;;18.10;85.90;;;;;;5078585;28;20040;-81
2023/06/23 01:10:44;;;;;;;30.15;27.05;;;18.00;85.80;;;;;;5095419;28;20119;-81
2023/06/23 01:13:35;;;;;;;28.35;25.52;;;18.00;85.70;;;;;;5078754;28;20046;-81
2023/06/23 01:16:20;;;;;;;33.90;30.33;;;18.00;85.90;;;;;;5092667;28;20381;-81
2023/06/23 01:19:03;;;;;;;27.77;24.98;;;18.00;86.00;;;;;;5095355;28;20101;-81
2023/06/23 01:21:48;;;;;;;30.77;27.50;;;18.00;86.10;;;;;;5078441;28;20044;-81
2023/06/23 01:25:03;;;;;;;28.38;23.73;;;18.00;86.30;;;;;;5076840;28;20502;-80
2023/06/23 01:27:37;;;;;;;26.25;23.55;;;17.90;86.20;;;;;;5057004;28;20062;-81
2023/06/23 01:30:06;;;;;;;33.28;29.30;;;17.90;86.20;;;;;;5093097;28;20046;-81
2023/06/23 01:32:43;;;;;;;29.60;26.48;;;17.80;86.40;;;;;;5078123;28;20040;-81
2023/06/23 01:35:16;;;;;;;28.90;26.08;;;17.80;86.50;;;;;;5078224;28;20036;-81
2023/06/23 01:37:47;;;;;;;28.98;25.60;;;17.70;86.70;;;;;;5095555;28;20104;-81
2023/06/23 01:40:15;;;;;;;33.97;30.38;;;17.70;86.80;;;;;;5078508;28;20048;-80
2023/06/23 01:42:49;;;;;;;36.58;32.58;;;17.60;86.80;;;;;;5093290;28;20038;-81
2023/06/23 01:45:17;;;;;;;31.35;28.02;;;17.70;87.00;;;;;;5058301;28;20041;-81
2023/06/23 01:47:48;;;;;;;35.67;31.58;;;17.60;87.20;;;;;;5074621;28;20119;-80
2023/06/23 01:50:16;;;;;;;26.95;23.45;;;17.50;87.30;;;;;;5058376;28;20040;-81
2023/06/23 01:52:44;;;;;;;41.60;36.58;;;17.50;87.60;;;;;;5042240;28;20113;-80
2023/06/23 01:55:12;;;;;;;43.05;38.38;;;17.50;87.60;;;;;;5074581;28;20047;-80
2023/06/23 01:57:39;;;;;;;41.47;34.58;;;17.50;87.80;;;;;;5044612;28;20077;-80
2023/06/23 02:00:13;;;;;;;49.70;40.92;;;17.50;88.20;;;;;;5078023;28;20036;-79
2023/06/23 02:02:45;;;;;;;39.05;34.85;;;17.50;88.40;;;;;;5094627;28;20487;-79
2023/06/23 02:05:12;;;;;;;48.70;43.53;;;17.50;88.50;;;;;;5094527;28;20488;-80
2023/06/23 02:07:45;;;;;;;53.05;43.25;;;17.40;88.70;;;;;;5094607;28;20047;-80
2023/06/23 02:10:11;;;;;;;48.38;42.95;;;17.40;88.90;;;;;;5094120;28;20036;-80
2023/06/23 02:12:41;;;;;;;49.78;42.72;;;17.40;89.10;;;;;;5092351;28;20036;-80
2023/06/23 02:15:08;;;;;;;43.85;38.13;;;17.40;89.20;;;;;;5093609;28;20123;-80
2023/06/23 02:17:36;;;;;;;50.90;44.17;;;17.40;89.40;;;;;;5076773;28;20458;-80
2023/06/23 02:20:13;;;;;;;55.85;46.28;;;17.40;89.60;;;;;;5076663;28;20123;-80
2023/06/23 02:22:42;;;;;;;48.00;41.15;;;17.40;89.70;;;;;;5076668;28;20047;-80
2023/06/23 02:25:09;;;;;;;54.28;45.00;;;17.40;90.10;;;;;;5077165;28;20047;-80
2023/06/23 02:27:35;;;;;;;45.40;38.95;;;17.40;90.00;;;;;;5076191;28;20072;-80
2023/06/23 02:30:02;;;;;;;51.75;42.85;;;17.40;90.30;;;;;;5043718;28;20118;-80
2023/06/23 02:32:28;;;;;;;51.15;41.53;;;17.40;90.30;;;;;;5077011;28;20036;-80
2023/06/23 02:34:54;;;;;;;50.22;41.15;;;17.30;90.40;;;;;;5093509;28;20506;-80
2023/06/23 02:37:23;;;;;;;42.65;37.03;;;17.30;90.60;;;;;;5076546;28;20404;-80
2023/06/23 02:39:55;;;;;;;43.13;35.83;;;17.40;90.90;;;;;;5076998;28;20517;-80
2023/06/23 02:42:25;;;;;;;47.03;39.17;;;17.40;90.80;;;;;;5091231;28;20044;-80
2023/06/23 02:44:56;;;;;;;51.67;38.80;;;17.30;90.80;;;;;;5093568;28;20115;-79
2023/06/23 02:47:24;;;;;;;50.95;40.30;;;17.30;90.90;;;;;;5076761;28;20071;-80
2023/06/23 02:49:53;;;;;;;41.35;34.40;;;17.30;90.90;;;;;;5093238;28;20043;-79
2023/06/23 02:52:21;;;;;;;41.25;35.33;;;17.30;91.10;;;;;;5076243;28;20484;-81
2023/06/23 02:54:51;;;;;;;43.40;35.45;;;17.20;91.10;;;;;;5091178;28;20040;-80
2023/06/23 02:57:19;;;;;;;39.13;31.73;;;17.20;91.00;;;;;;5093156;28;20523;-79
2023/06/23 02:59:49;;;;;;;45.38;35.17;;;17.20;91.10;;;;;;5093395;28;20040;-79
2023/06/23 03:02:17;;;;;;;48.33;35.88;;;17.20;91.00;;;;;;5076248;28;20052;-80
2023/06/23 03:04:44;;;;;;;41.30;32.55;;;17.20;91.10;;;;;;5075933;28;20048;-79
2023/06/23 03:07:10;;;;;;;40.33;32.75;;;17.20;91.10;;;;;;5059113;28;20081;-79
2023/06/23 03:09:36;;;;;;;40.55;29.73;;;17.10;91.10;;;;;;5091329;28;20032;-79
2023/06/23 03:12:02;;;;;;;29.60;24.13;;;17.20;91.10;;;;;;5092271;28;20043;-79
2023/06/23 03:14:28;;;;;;;32.10;24.60;;;17.10;91.10;;;;;;5075677;28;20044;-80
2023/06/23 03:17:02;;;;;;;34.17;27.50;;;17.10;91.10;;;;;;5075307;28;20036;-79
2023/06/23 03:19:40;;;;;;;27.58;22.95;;;17.10;91.00;;;;;;5092557;28;20040;-79
2023/06/23 03:22:09;;;;;;;32.63;25.25;;;17.10;91.00;;;;;;5092567;28;20043;-79
2023/06/23 03:24:38;;;;;;;28.73;24.67;;;17.10;90.90;;;;;;5091823;28;20039;-79
2023/06/23 03:27:07;;;;;;;30.45;25.17;;;17.10;90.90;;;;;;5093064;28;20575;-79
2023/06/23 03:29:39;;;;;;;24.05;21.33;;;17.10;90.80;;;;;;5075980;28;20036;-79
2023/06/23 03:32:07;;;;;;;32.88;23.52;;;17.10;90.70;;;;;;5093284;28;20039;-79
2023/06/23 03:34:58;;;;;;;32.33;25.52;;;17.10;90.70;;;;;;5076468;28;20187;-79
2023/06/23 03:37:28;;;;;;;27.77;22.95;;;17.10;90.70;;;;;;5092942;28;20036;-79
2023/06/23 03:39:59;;;;;;;29.23;23.05;;;17.00;90.70;;;;;;5091538;28;20083;-80
2023/06/23 03:42:25;;;;;;;28.20;23.40;;;17.00;90.60;;;;;;5092445;28;20044;-81
2023/06/23 03:44:54;;;;;;;27.25;23.13;;;17.00;90.60;;;;;;5075388;28;20039;-80
2023/06/23 03:47:23;;;;;;;28.38;21.98;;;16.90;90.60;;;;;;5091798;28;20043;-80
2023/06/23 03:50:02;;;;;;;25.50;20.50;;;16.90;90.70;;;;;;5091835;28;20044;-81
2023/06/23 03:52:29;;;;;;;25.52;21.85;;;16.90;90.70;;;;;;5075718;28;20071;-80
2023/06/23 03:54:57;;;;;;;26.33;20.52;;;16.90;90.70;;;;;;5074116;28;20040;-80
2023/06/23 03:57:27;;;;;;;24.95;20.55;;;16.90;90.70;;;;;;5075731;28;20066;-80
2023/06/23 03:59:54;;;;;;;26.75;21.90;;;17.00;90.80;;;;;;5075406;28;20396;-80
2023/06/23 04:02:23;;;;;;;27.00;21.15;;;16.90;90.70;;;;;;5074819;28;20052;-80
2023/06/23 04:04:50;;;;;;;30.80;22.63;;;16.90;90.70;;;;;;5092054;28;20040;-79
2023/06/23 04:07:18;;;;;;;26.17;21.25;;;16.90;90.70;;;;;;5090656;28;20182;-80
2023/06/23 04:09:47;;;;;;;28.90;22.08;;;16.90;90.90;;;;;;5068209;28;20044;-79
2023/06/23 04:12:16;;;;;;;30.73;21.58;;;16.90;90.90;;;;;;5072406;28;20036;-80
2023/06/23 04:14:44;;;;;;;23.63;18.45;;;16.90;91.00;;;;;;5072227;28;20043;-80
2023/06/23 04:17:12;;;;;;;32.70;21.10;;;16.90;91.00;;;;;;5072523;28;20044;-80
2023/06/23 04:19:39;;;;;;;28.00;23.30;;;16.90;91.00;;;;;;5072198;28;20040;-80
2023/06/23 04:22:07;;;;;;;28.20;20.85;;;16.90;91.10;;;;;;5065181;28;20046;-81
2023/06/23 04:24:36;;;;;;;24.17;19.35;;;16.90;91.10;;;;;;5075802;28;20040;-81
2023/06/23 04:27:04;;;;;;;25.10;20.70;;;16.90;91.20;;;;;;5075444;28;20583;-80
2023/06/23 04:29:33;;;;;;;27.02;22.35;;;17.00;91.40;;;;;;5075236;28;20040;-80
2023/06/23 04:31:59;;;;;;;30.77;24.55;;;17.00;91.40;;;;;;5092129;28;20051;-80
2023/06/23 04:34:25;;;;;;;29.00;21.88;;;17.00;91.40;;;;;;5092772;28;20044;-81
2023/06/23 04:37:01;;;;;;;25.73;20.90;;;17.10;91.50;;;;;;5052458;28;20487;-81
2023/06/23 04:39:31;;;;;;;30.98;23.55;;;17.10;91.60;;;;;;5075196;28;20036;-80
2023/06/23 04:42:02;;;;;;;26.00;19.90;;;17.20;91.60;;;;;;5075322;28;20096;-81
2023/06/23 04:44:29;;;;;;;20.27;16.83;;;17.20;91.70;;;;;;5075473;28;20047;-82
2023/06/23 04:47:01;;;;;;;25.20;19.15;;;17.20;91.80;;;;;;5058988;28;20388;-80
2023/06/23 04:49:29;;;;;;;25.13;20.67;;;17.20;91.80;;;;;;5092028;28;20040;-79
2023/06/23 04:51:58;;;;;;;25.38;21.95;;;17.20;91.70;;;;;;5090621;28;20028;-81
2023/06/23 04:54:39;;;;;;;21.45;17.90;;;17.20;91.70;;;;;;5073266;28;20492;-79
2023/06/23 04:57:10;;;;;;;30.17;19.73;;;17.20;91.70;;;;;;5074805;28;20043;-80
2023/06/23 04:59:39;;;;;;;24.52;20.35;;;17.20;91.70;;;;;;5078728;28;20102;-80
2023/06/23 05:02:06;;;;;;;25.60;19.10;;;17.20;91.70;;;;;;5095328;28;20189;-80
2023/06/23 05:04:34;;;;;;;24.05;18.55;;;17.30;91.70;;;;;;5079017;28;20051;-80
2023/06/23 05:07:02;;;;;;;28.05;19.70;;;17.30;91.80;;;;;;5078817;28;20044;-81
2023/06/23 05:09:28;;;;;;;25.98;19.48;;;17.30;91.90;;;;;;5095365;28;20047;-83
2023/06/23 05:11:55;;;;;;;25.30;19.08;;;17.40;92.00;;;;;;5078607;28;20112;-81
2023/06/23 05:14:23;;;;;;;20.38;16.50;;;17.40;92.10;;;;;;5078737;28;20036;-81
2023/06/23 05:16:49;;;;;;;26.15;17.45;;;17.50;92.10;;;;;;5078256;28;20087;-79
2023/06/23 05:19:17;;;;;;;24.52;16.83;;;17.50;92.20;;;;;;5095426;28;20118;-81
2023/06/23 05:21:44;;;;;;;23.00;17.20;;;17.60;92.10;;;;;;5078377;28;20044;-81
2023/06/23 05:24:11;;;;;;;24.42;16.38;;;17.80;92.10;;;;;;5045410;28;20126;-80
2023/06/23 05:26:39;;;;;;;21.48;16.33;;;17.80;92.10;;;;;;5078482;28;20032;-80
2023/06/23 05:29:08;;;;;;;21.33;16.23;;;18.00;92.10;;;;;;5078222;28;20093;-80
2023/06/23 05:31:38;;;;;;;21.63;15.50;;;18.00;92.00;;;;;;5078686;28;20044;-81
2023/06/23 05:34:07;;;;;;;20.95;16.02;;;18.10;91.90;;;;;;5094977;28;20040;-80
2023/06/23 05:36:36;;;;;;;23.10;17.00;;;18.20;91.80;;;;;;5078209;28;20047;-80
2023/06/23 05:39:04;;;;;;;18.45;15.25;;;18.20;91.70;;;;;;5094738;28;20507;-78
2023/06/23 05:41:30;;;;;;;17.83;15.90;;;18.40;91.60;;;;;;5094860;28;20396;-79
2023/06/23 05:43:56;;;;;;;18.50;15.20;;;18.40;91.40;;;;;;5061759;28;20039;-82
2023/06/23 05:46:25;;;;;;;20.70;16.10;;;18.50;91.20;;;;;;5044812;28;20040;-80
2023/06/23 05:48:57;;;;;;;19.00;16.48;;;18.50;90.90;;;;;;5077776;28;20476;-80
2023/06/23 05:51:29;;;;;;;14.95;13.38;;;18.50;90.80;;;;;;5077737;28;20126;-79
2023/06/23 05:53:59;;;;;;;22.70;15.82;;;18.60;90.60;;;;;;5077815;28;20040;-81
2023/06/23 05:56:38;;;;;;;19.95;14.90;;;18.70;90.20;;;;;;5088400;28;20036;-81
2023/06/23 05:59:08;;;;;;;19.00;15.20;;;18.70;90.10;;;;;;5069741;28;20047;-80
2023/06/23 06:01:40;;;;;;;22.38;16.83;;;18.80;90.00;;;;;;5093358;28;20044;-80
2023/06/23 06:04:13;;;;;;;16.63;14.93;;;18.90;89.80;;;;;;5094667;28;20044;-80
2023/06/23 06:06:40;;;;;;;20.13;16.20;;;18.90;89.50;;;;;;5094555;28;20075;-80
2023/06/23 06:09:11;;;;;;;13.38;12.00;;;18.80;89.20;;;;;;5093619;28;20058;-81
2023/06/23 06:11:43;;;;;;;18.58;14.32;;;18.80;89.10;;;;;;5094425;28;20040;-81
2023/06/23 06:14:09;;;;;;;13.73;11.90;;;18.80;88.70;;;;;;5094342;28;20522;-79
2023/06/23 06:16:37;;;;;;;23.48;12.38;;;18.90;88.60;;;;;;5060207;28;20039;-78
2023/06/23 06:19:03;;;;;;;13.77;10.95;;;18.80;88.30;;;;;;5093725;28;20515;-77
2023/06/23 06:21:32;;;;;;;13.00;10.68;;;18.90;88.00;;;;;;5076409;28;20496;-78
2023/06/23 06:23:59;;;;;;;13.00;10.38;;;18.90;87.70;;;;;;5093481;28;20524;-77
2023/06/23 06:26:26;;;;;;;10.60;9.48;;;19.00;87.30;;;;;;5076676;28;20168;-78
2023/06/23 06:28:54;;;;;;;10.93;8.45;;;19.00;87.00;;;;;;5094067;28;20040;-78
2023/06/23 06:31:21;;;;;;;11.55;8.82;;;19.10;86.70;;;;;;5077387;28;20392;-78
2023/06/23 06:33:50;;;;;;;12.02;9.15;;;19.10;86.00;;;;;;5077043;28;20044;-79
2023/06/23 06:36:18;;;;;;;11.82;10.50;;;19.20;85.20;;;;;;5066521;28;20515;-78
2023/06/23 06:38:46;;;;;;;11.95;10.60;;;19.30;85.10;;;;;;5062673;28;20036;-78
2023/06/23 06:41:14;;;;;;;12.57;11.27;;;19.30;85.50;;;;;;5061707;28;20086;-79
2023/06/23 06:43:40;;;;;;;10.75;9.65;;;19.40;85.80;;;;;;5067779;28;20051;-78
2023/06/23 06:46:06;;;;;;;12.38;9.93;;;19.40;85.80;;;;;;5040194;28;20501;-79
2023/06/23 06:48:34;;;;;;;11.43;10.23;;;19.40;85.80;;;;;;5081129;28;20040;-81
2023/06/23 06:51:01;;;;;;;11.65;9.90;;;19.50;85.50;;;;;;5093675;28;20071;-80
2023/06/23 06:53:29;;;;;;;14.48;11.10;;;19.50;85.10;;;;;;5060207;28;20126;-80
2023/06/23 06:55:55;;;;;;;13.68;11.73;;;19.60;84.60;;;;;;5076741;28;20070;-80
2023/06/23 06:58:22;;;;;;;12.63;10.32;;;19.60;84.80;;;;;;5060427;28;20446;-78
2023/06/23 07:00:48;;;;;;;10.05;7.57;;;19.60;84.70;;;;;;5076424;28;20036;-80
2023/06/23 07:03:14;;;;;;;10.15;7.63;;;19.70;83.80;;;;;;5092996;28;20381;-78
2023/06/23 07:05:40;;;;;;;8.70;7.20;;;19.70;83.00;;;;;;5076742;28;20059;-80
2023/06/23 07:08:06;;;;;;;8.90;7.18;;;19.70;82.90;;;;;;5076441;28;20036;-81
2023/06/23 07:10:33;;;;;;;12.35;8.25;;;19.80;83.00;;;;;;5093621;28;20039;-79
2023/06/23 07:13:00;;;;;;;9.98;7.72;;;19.90;82.70;;;;;;5093834;28;20048;-80
2023/06/23 07:15:26;;;;;;;12.50;7.80;;;19.90;82.70;;;;;;5059353;28;20075;-82
2023/06/23 07:17:51;;;;;;;9.18;8.10;;;20.00;82.30;;;;;;5041394;28;20518;-80
2023/06/23 07:20:17;;;;;;;7.78;6.97;;;20.10;82.10;;;;;;5058750;28;20082;-81
2023/06/23 07:22:43;;;;;;;10.32;7.57;;;20.20;81.90;;;;;;5059137;28;20043;-81
2023/06/23 07:25:09;;;;;;;20.15;9.40;;;20.20;81.70;;;;;;5075923;28;20047;-84
2023/06/23 07:27:35;;;;;;;29.92;8.43;;;20.40;81.50;;;;;;5075958;28;20036;-84
2023/06/23 07:30:01;;;;;;;13.48;8.05;;;20.40;81.60;;;;;;5075435;28;20400;-83
2023/06/23 07:32:27;;;;;;;10.98;7.43;;;20.50;81.20;;;;;;5060111;28;20048;-82
2023/06/23 07:34:53;;;;;;;16.00;7.05;;;20.50;80.70;;;;;;5043224;28;20112;-83
2023/06/23 07:37:18;;;;;;;13.77;7.43;;;20.50;80.70;;;;;;5093013;28;20068;-80
2023/06/23 07:39:44;;;;;;;7.57;6.35;;;20.60;80.40;;;;;;5076141;28;20101;-81
2023/06/23 07:42:10;;;;;;;7.40;6.47;;;20.60;80.10;;;;;;5059185;28;20040;-84
2023/06/23 07:44:37;;;;;;;9.48;6.20;;;20.80;80.00;;;;;;5092927;28;20039;-83
2023/06/23 07:47:03;;;;;;;7.10;6.35;;;20.80;79.30;;;;;;5059187;28;20050;-81
2023/06/23 07:49:29;;;;;;;7.57;6.57;;;20.90;79.00;;;;;;5075728;28;20036;-83
2023/06/23 07:52:00;;;;;;;13.27;6.10;;;20.90;78.70;;;;;;5093154;28;20089;-82
2023/06/23 07:54:29;;;;;;;7.30;6.10;;;21.00;77.60;;;;;;5076153;28;20054;-82
2023/06/23 07:56:56;;;;;;;9.63;5.47;;;21.10;76.20;;;;;;5076254;28;20044;-82
2023/06/23 07:59:22;;;;;;;8.80;6.03;;;21.20;75.90;;;;;;5076240;28;20105;-83
2023/06/23 08:01:48;;;;;;;7.00;5.78;;;21.30;75.70;;;;;;5059163;28;20139;-80
2023/06/23 08:04:14;;;;;;;9.63;6.13;;;21.40;75.90;;;;;;5075865;28;20140;-80
2023/06/23 08:06:39;;;;;;;8.07;5.72;;;21.40;76.30;;;;;;5092464;28;20047;-80
2023/06/23 08:09:05;;;;;;;9.63;5.78;;;21.40;76.10;;;;;;5059048;28;20040;-80
2023/06/23 08:11:31;;;;;;;7.00;4.50;;;21.40;76.00;;;;;;5042312;28;20028;-81
2023/06/23 08:13:57;;;;;;;7.68;5.05;;;21.50;75.70;;;;;;5076132;28;20139;-79
2023/06/23 08:16:22;;;;;;;7.65;5.43;;;21.60;75.30;;;;;;5075730;28;20040;-79
2023/06/23 08:18:48;;;;;;;4.85;4.43;;;21.70;75.40;;;;;;5075562;28;20238;-80
2023/06/23 08:21:14;;;;;;;6.32;4.63;;;21.90;75.60;;;;;;5059120;28;20040;-80
2023/06/23 08:23:41;;;;;;;6.13;5.15;;;21.90;74.50;;;;;;5075518;28;20097;-80
2023/06/23 08:26:07;;;;;;;6.78;5.22;;;21.90;74.10;;;;;;5059108;28;20044;-79
2023/06/23 08:28:33;;;;;;;6.90;4.88;;;22.00;74.00;;;;;;5075478;28;20051;-79
2023/06/23 08:30:58;;;;;;;6.60;4.50;;;22.00;73.90;;;;;;5042570;28;20127;-79
2023/06/23 08:33:24;;;;;;;6.63;4.28;;;22.20;74.10;;;;;;5061370;28;20463;-81
2023/06/23 08:35:50;;;;;;;6.00;4.65;;;22.30;73.50;;;;;;5079703;28;20043;-79
2023/06/23 08:38:16;;;;;;;6.93;4.82;;;22.40;72.40;;;;;;5062861;28;20089;-79
2023/06/23 08:40:42;;;;;;;6.65;5.00;;;22.40;72.60;;;;;;5078441;28;20131;-84
2023/06/23 08:43:12;;;;;;;7.85;5.63;;;22.40;72.00;;;;;;5078591;28;20075;-82
2023/06/23 08:45:44;;;;;;;5.60;4.50;;;22.50;71.80;;;;;;5096200;28;20408;-86
2023/06/23 08:48:11;;;;;;;12.55;5.32;;;22.60;71.40;;;;;;5079956;28;20083;-84
2023/06/23 08:50:37;;;;;;;6.18;5.05;;;22.50;70.90;;;;;;5096665;28;20044;-82
2023/06/23 08:53:06;;;;;;;5.32;4.82;;;22.60;70.10;;;;;;5095463;28;20047;-84
2023/06/23 08:55:33;;;;;;;7.10;5.32;;;22.60;70.30;;;;;;5057942;28;20037;-83
2023/06/23 08:58:01;;;;;;;6.95;5.05;;;22.50;71.00;;;;;;5074959;28;20047;-83
2023/06/23 09:00:27;;;;;;;7.55;5.70;;;22.50;71.20;;;;;;5058575;28;20033;-84
2023/06/23 09:02:54;;;;;;;5.50;4.88;;;22.50;71.20;;;;;;5042931;28;20145;-83
2023/06/23 09:05:20;;;;;;;6.85;5.90;;;22.60;70.10;;;;;;5075972;28;20490;-84
2023/06/23 09:07:46;;;;;;;9.05;5.43;;;22.60;69.70;;;;;;5059845;28;20132;-83
2023/06/23 09:10:12;;;;;;;6.88;5.30;;;22.70;68.60;;;;;;5042395;28;20043;-84
2023/06/23 09:12:42;;;;;;;8.57;5.55;;;22.70;68.00;;;;;;5059692;28;20075;-86
2023/06/23 09:15:10;;;;;;;9.48;6.25;;;22.80;68.10;;;;;;5059749;28;20411;-83
2023/06/23 09:17:38;;;;;;;8.35;6.43;;;22.80;68.50;;;;;;5043267;28;20040;-84
2023/06/23 09:20:04;;;;;;;6.97;4.85;;;22.90;68.20;;;;;;5059098;28;20045;-84
2023/06/23 09:22:31;;;;;;;6.50;5.80;;;22.90;67.30;;;;;;5042478;28;20044;-85
2023/06/23 09:24:57;;;;;;;9.77;5.93;;;23.00;66.40;;;;;;5041880;28;20036;-84
2023/06/23 09:27:42;;;;;;;9.95;5.82;;;23.00;66.80;;;;;;5025417;28;20117;-83
2023/06/23 09:30:08;;;;;;;6.15;4.97;;;23.10;65.60;;;;;;5058977;28;20397;-84
2023/06/23 09:32:33;;;;;;;10.07;5.90;;;23.20;65.30;;;;;;5042676;28;20033;-84
2023/06/23 09:34:59;;;;;;;24.30;10.05;;;23.30;64.20;;;;;;5042113;28;20519;-83
2023/06/23 09:37:33;;;;;;;15.68;7.55;;;23.30;64.20;;;;;;5058891;28;20041;-83
2023/06/23 09:39:59;;;;;;;9.60;5.72;;;23.30;65.20;;;;;;5043303;28;20054;-83
2023/06/23 09:42:24;;;;;;;7.10;5.25;;;23.40;65.40;;;;;;5042633;28;20123;-84
2023/06/23 09:44:50;;;;;;;5.68;5.07;;;23.50;65.20;;;;;;5041069;28;20453;-84
2023/06/23 09:47:18;;;;;;;7.25;5.40;;;23.50;63.70;;;;;;5025601;28;20040;-83
2023/06/23 09:49:49;;;;;;;8.40;5.10;;;23.60;62.80;;;;;;5057869;28;20044;-84
2023/06/23 09:52:24;;;;;;;5.72;5.13;;;23.60;63.30;;;;;;5041984;28;20090;-83
2023/06/23 09:54:49;;;;;;;5.25;4.70;;;23.60;62.70;;;;;;5058947;28;20435;-82
2023/06/23 09:57:16;;;;;;;6.65;5.30;;;23.70;62.40;;;;;;5041913;28;20036;-82
2023/06/23 09:59:44;;;;;;;6.55;4.93;;;23.80;61.20;;;;;;5058464;28;20049;-83
2023/06/23 10:02:24;;;;;;;6.82;6.07;;;23.90;61.70;;;;;;5058539;28;20382;-82
2023/06/23 10:04:56;;;;;;;6.72;4.90;;;23.90;61.70;;;;;;5058681;28;20044;-83
2023/06/23 10:07:24;;;;;;;5.63;4.93;;;23.90;61.20;;;;;;5058123;28;20128;-81
2023/06/23 10:10:04;;;;;;;8.10;5.05;;;23.90;60.50;;;;;;5057919;28;20108;-81
2023/06/23 10:12:30;;;;;;;6.82;4.75;;;23.90;61.40;;;;;;5074400;28;20076;-81
2023/06/23 10:14:57;;;;;;;4.85;4.25;;;23.90;59.50;;;;;;5058262;28;20123;-79
2023/06/23 10:17:23;;;;;;;6.28;5.38;;;23.90;58.80;;;;;;5056632;28;20040;-78
2023/06/23 10:19:50;;;;;;;6.05;5.13;;;24.00;61.00;;;;;;5054143;28;20509;-80
2023/06/23 10:22:20;;;;;;;6.68;4.47;;;24.00;60.10;;;;;;5045143;28;20370;-78
2023/06/23 10:24:52;;;;;;;5.70;4.47;;;24.10;57.20;;;;;;5046058;28;20127;-80
2023/06/23 10:27:29;;;;;;;6.22;4.60;;;24.20;58.40;;;;;;5079001;28;20051;-79
2023/06/23 10:29:58;;;;;;;7.60;4.75;;;24.20;57.70;;;;;;5063576;28;20048;-79
2023/06/23 10:32:29;;;;;;;6.57;5.20;;;24.30;58.20;;;;;;5079723;28;20075;-80
2023/06/23 10:35:04;;;;;;;7.07;4.45;;;24.30;57.80;;;;;;5058018;28;20047;-80
2023/06/23 10:37:30;;;;;;;5.97;4.78;;;24.30;55.90;;;;;;5061725;28;20044;-80
2023/06/23 10:40:00;;;;;;;5.50;4.57;;;24.30;56.10;;;;;;5078038;28;20059;-79
2023/06/23 10:42:28;;;;;;;5.30;4.80;;;24.20;56.60;;;;;;5075262;28;20059;-78
2023/06/23 10:44:54;;;;;;;5.40;4.03;;;24.20;57.70;;;;;;5080758;28;20049;-79
2023/06/23 10:47:21;;;;;;;5.72;4.47;;;24.40;57.90;;;;;;5074422;28;20051;-79
2023/06/23 10:49:48;;;;;;;5.88;4.57;;;24.50;56.20;;;;;;5051639;28;20054;-78
2023/06/23 10:52:15;;;;;;;5.07;3.80;;;24.60;56.20;;;;;;5077319;28;20475;-79
2023/06/23 10:54:42;;;;;;;8.32;4.75;;;24.60;54.90;;;;;;5058021;28;20036;-77
2023/06/23 10:57:10;;;;;;;8.20;4.68;;;24.70;55.90;;;;;;5056830;28;20522;-80
2023/06/23 10:59:44;;;;;;;5.38;4.65;;;24.80;57.10;;;;;;5061184;28;20040;-79
2023/06/23 11:02:17;;;;;;;7.35;4.07;;;24.90;56.20;;;;;;5058862;28;20066;-78
2023/06/23 11:05:03;;;;;;;4.17;3.43;;;24.90;52.90;;;;;;5059986;28;20432;-78
2023/06/23 11:07:29;;;;;;;4.80;3.33;;;24.90;51.00;;;;;;5074596;28;20297;-79
2023/06/23 11:09:55;;;;;;;5.15;3.28;;;25.00;51.30;;;;;;5051322;28;20044;-78
2023/06/23 11:12:38;;;;;;;4.10;3.35;;;25.10;50.70;;;;;;5061031;28;20044;-81
2023/06/23 11:15:16;;;;;;;5.57;3.47;;;25.20;50.70;;;;;;4997044;28;20045;-81
2023/06/23 11:18:04;;;;;;;3.28;2.85;;;25.30;49.80;;;;;;5000656;28;20049;-79
2023/06/23 11:20:38;;;;;;;5.10;4.03;;;25.30;49.80;;;;;;4996449;28;20433;-81
2023/06/23 11:23:09;;;;;;;4.68;3.65;;;25.40;49.00;;;;;;5021444;28;20044;-80
2023/06/23 11:25:36;;;;;;;5.75;3.85;;;25.50;49.20;;;;;;5017132;28;20064;-80
2023/06/23 11:28:23;;;;;;;4.63;3.38;;;25.50;48.40;;;;;;5005532;28;20110;-81
2023/06/23 11:30:55;;;;;;;5.50;2.92;;;25.60;48.70;;;;;;5027251;28;20045;-81
2023/06/23 11:33:29;;;;;;;5.07;3.20;;;25.60;47.60;;;;;;5002953;28;20030;-83
2023/06/23 11:35:58;;;;;;;3.95;2.65;;;25.60;46.60;;;;;;5020852;28;20037;-82
2023/06/23 11:38:26;;;;;;;6.32;2.97;;;25.80;46.00;;;;;;5001203;28;20069;-82
2023/06/23 11:40:54;;;;;;;6.57;3.08;;;25.80;46.70;;;;;;5004244;28;20125;-83
2023/06/23 11:43:20;;;;;;;5.18;3.00;;;25.80;47.80;;;;;;5016145;28;20497;-83
2023/06/23 11:45:56;;;;;;;4.65;3.65;;;25.80;49.60;;;;;;4980292;28;20042;-83
2023/06/23 11:48:27;;;;;;;4.50;2.80;;;25.90;46.80;;;;;;4996023;28;20201;-83
2023/06/23 11:50:57;;;;;;;5.65;2.80;;;26.00;47.20;;;;;;4995812;28;20044;-83
2023/06/23 11:53:23;;;;;;;4.95;2.83;;;26.10;46.70;;;;;;4996388;28;20042;-83
2023/06/23 11:55:52;;;;;;;5.13;3.13;;;26.00;46.00;;;;;;5029241;28;20121;-83
2023/06/23 11:58:18;;;;;;;5.72;2.85;;;26.10;47.60;;;;;;4995637;28;20050;-82
2023/06/23 12:00:44;;;;;;;4.70;2.65;;;26.20;48.40;;;;;;5012568;28;20045;-82
2023/06/23 12:03:14;;;;;;;4.53;3.13;;;26.10;47.50;;;;;;5012536;28;20061;-84
2023/06/23 12:05:42;;;;;;;4.22;2.60;;;26.00;47.60;;;;;;5013010;28;20045;-82
2023/06/23 12:08:09;;;;;;;4.47;3.03;;;25.90;47.00;;;;;;4998616;28;20132;-82
2023/06/23 12:10:40;;;;;;;6.32;3.30;;;25.80;48.80;;;;;;5016549;28;20096;-81
2023/06/23 12:13:13;;;;;;;5.60;3.00;;;25.70;49.00;;;;;;5016925;28;20389;-82
2023/06/23 12:15:40;;;;;;;8.25;2.55;;;25.60;48.20;;;;;;5000282;28;20042;-81
2023/06/23 12:18:06;;;;;;;4.88;3.33;;;25.80;48.60;;;;;;5016462;28;20042;-80
2023/06/23 12:20:45;;;;;;;3.92;2.88;;;25.90;47.90;;;;;;5016667;28;20030;-82
2023/06/23 12:23:11;;;;;;;3.03;2.72;;;26.10;48.10;;;;;;5000661;28;20038;-82
2023/06/23 12:25:45;;;;;;;7.13;3.38;;;26.30;48.80;;;;;;5001010;28;20037;-81
2023/06/23 12:28:15;;;;;;;5.72;3.58;;;26.30;49.30;;;;;;5016792;28;20099;-81
2023/06/23 12:30:43;;;;;;;4.95;3.10;;;26.20;48.10;;;;;;5016419;28;20038;-82
2023/06/23 12:33:38;;;;;;;6.38;3.20;;;25.80;49.00;;;;;;4983678;28;20072;-82
2023/06/23 12:36:04;;;;;;;4.70;3.13;;;25.70;50.00;;;;;;4999826;28;20240;-83
2023/06/23 12:38:32;;;;;;;5.55;3.05;;;25.70;49.40;;;;;;5015827;28;20481;-83
2023/06/23 12:41:14;;;;;;;5.72;3.60;;;25.80;49.10;;;;;;5015356;28;20048;-81
2023/06/23 12:43:40;;;;;;;4.47;3.08;;;25.90;49.70;;;;;;5015589;28;20053;-82
2023/06/23 12:46:08;;;;;;;5.80;3.20;;;26.10;49.60;;;;;;5015405;28;20045;-83